Time;durP1;ratioP1;P1;durP2;ratioP2;P2;SDS_P1;SDS_P2;PMS_P1;PMS_P2;Temp;Humidity;BMP_temperature;BMP_pressure;BME280_temperature;BME280_humidity;BME280_pressure;Samples;Min_cycle;Max_cycle;Signal;HPM_P1;HPM_P2
2021/12/11 00:01:18;;;;;;;19.63;10.93;;;2.40;99.90;;;;;;5050850;28;20421;-86
2021/12/11 00:03:54;;;;;;;18.90;11.97;;;2.30;99.90;;;;;;5051297;28;20467;-86
2021/12/11 00:06:25;;;;;;;15.77;11.27;;;2.30;99.90;;;;;;5050993;28;20451;-86
2021/12/11 00:08:54;;;;;;;23.77;11.10;;;2.30;99.90;;;;;;5051080;28;20420;-86
2021/12/11 00:11:34;;;;;;;19.00;11.17;;;2.20;99.90;;;;;;5050817;28;20425;-87
2021/12/11 00:14:03;;;;;;;18.07;10.63;;;2.10;99.90;;;;;;5050898;28;20460;-85
2021/12/11 00:16:31;;;;;;;21.23;11.37;;;2.10;99.90;;;;;;5050778;28;20440;-87
2021/12/11 00:19:03;;;;;;;16.07;11.53;;;2.00;99.90;;;;;;5050774;28;20422;-87
2021/12/11 00:21:30;;;;;;;20.40;12.30;;;2.00;99.90;;;;;;5050752;28;20413;-87
2021/12/11 00:24:02;;;;;;;18.37;11.80;;;2.00;99.90;;;;;;5050664;28;20433;-87
2021/12/11 00:26:32;;;;;;;21.73;11.77;;;2.00;99.90;;;;;;5050853;28;20443;-87
2021/12/11 00:28:58;;;;;;;20.63;13.77;;;2.00;99.90;;;;;;5050686;28;20766;-87
2021/12/11 00:31:25;;;;;;;19.17;12.00;;;2.00;99.90;;;;;;5050564;28;20482;-87
2021/12/11 00:33:52;;;;;;;26.80;14.53;;;2.00;99.90;;;;;;5050564;28;21049;-87
2021/12/11 00:36:20;;;;;;;23.83;15.03;;;2.10;99.90;;;;;;5050595;28;20483;-87
2021/12/11 00:38:49;;;;;;;22.23;14.67;;;2.10;99.90;;;;;;5050530;28;20428;-88
2021/12/11 00:41:17;;;;;;;20.53;12.37;;;2.10;99.90;;;;;;5050626;28;20798;-87
2021/12/11 00:43:45;;;;;;;22.23;15.13;;;2.10;99.90;;;;;;5050591;28;20429;-87
2021/12/11 00:46:17;;;;;;;26.67;14.87;;;2.10;99.90;;;;;;5057721;22;21020;-77
2021/12/11 00:48:43;;;;;;;23.50;15.33;;;2.10;99.90;;;;;;5039760;28;20448;-76
2021/12/11 00:51:17;;;;;;;31.80;17.30;;;2.10;99.90;;;;;;5042567;28;20430;-76
2021/12/11 00:53:53;;;;;;;28.07;16.67;;;2.10;99.90;;;;;;5034555;28;20465;-77
2021/12/11 00:56:22;;;;;;;28.50;17.33;;;2.20;99.90;;;;;;5034504;28;20967;-76
2021/12/11 00:58:51;;;;;;;30.17;16.97;;;2.20;99.90;;;;;;5034527;28;20430;-77
2021/12/11 01:01:31;;;;;;;30.33;18.87;;;2.30;99.90;;;;;;5034147;28;20834;-77
2021/12/11 01:04:08;;;;;;;31.70;19.23;;;2.40;99.90;;;;;;5034546;28;20424;-77
2021/12/11 01:06:49;;;;;;;35.90;19.80;;;2.40;99.90;;;;;;5034422;28;20469;-76
2021/12/11 01:09:19;;;;;;;30.33;19.60;;;2.40;99.90;;;;;;5034147;28;20961;-76
2021/12/11 01:12:12;;;;;;;32.07;19.80;;;2.50;99.90;;;;;;5034084;28;20817;-76
2021/12/11 01:14:50;;;;;;;34.63;20.27;;;2.50;99.90;;;;;;5034409;28;20974;-76
2021/12/11 01:17:41;;;;;;;40.53;19.70;;;2.60;99.90;;;;;;5034201;28;20429;-77
2021/12/11 01:20:33;;;;;;;34.23;20.03;;;2.50;99.90;;;;;;5033909;28;20422;-77
2021/12/11 01:23:00;;;;;;;36.07;21.07;;;2.60;99.90;;;;;;5033859;28;20450;-77
2021/12/11 01:25:28;;;;;;;37.83;20.07;;;2.60;99.90;;;;;;5034136;28;20817;-77
2021/12/11 01:27:57;;;;;;;37.07;19.50;;;2.70;99.90;;;;;;5033903;28;20446;-77
2021/12/11 01:30:36;;;;;;;45.50;21.60;;;2.90;99.90;;;;;;5033727;28;20847;-76
2021/12/11 01:33:04;;;;;;;41.67;22.37;;;3.00;99.90;;;;;;5033673;28;21013;-77
2021/12/11 01:35:30;;;;;;;35.40;20.00;;;3.00;99.90;;;;;;5033887;28;20422;-76
2021/12/11 01:38:25;;;;;;;37.13;20.90;;;3.10;99.90;;;;;;5033665;28;20465;-76
2021/12/11 01:40:56;;;;;;;32.57;19.40;;;3.20;99.90;;;;;;5023278;28;20415;-77
2021/12/11 01:43:26;;;;;;;35.97;21.10;;;3.20;99.90;;;;;;5033564;28;20478;-77
2021/12/11 01:45:54;;;;;;;42.27;21.53;;;3.30;99.90;;;;;;5033564;28;20439;-77
2021/12/11 01:48:30;;;;;;;36.37;19.90;;;3.30;99.90;;;;;;5033522;28;20766;-77
2021/12/11 01:51:05;;;;;;;33.50;18.70;;;3.30;99.90;;;;;;5033707;28;20426;-77
2021/12/11 01:53:40;;;;;;;38.63;20.17;;;3.40;99.90;;;;;;5033398;28;20454;-77
2021/12/11 01:56:11;;;;;;;35.27;21.57;;;3.40;99.90;;;;;;5033482;28;20920;-77
2021/12/11 01:58:50;;;;;;;37.63;20.47;;;3.50;99.90;;;;;;5033379;28;20905;-77
2021/12/11 02:01:39;;;;;;;36.90;19.17;;;3.60;99.90;;;;;;5032143;28;20419;-77
2021/12/11 02:04:10;;;;;;;39.37;20.43;;;3.60;99.90;;;;;;5033175;28;20435;-77
2021/12/11 02:06:43;;;;;;;31.80;19.93;;;3.70;99.90;;;;;;5033366;28;20510;-77
2021/12/11 02:09:25;;;;;;;36.10;19.50;;;3.70;99.90;;;;;;5032965;28;20805;-77
2021/12/11 02:12:13;;;;;;;35.13;19.40;;;3.80;99.90;;;;;;5033090;28;20808;-77
2021/12/11 02:14:44;;;;;;;34.37;18.60;;;3.80;99.90;;;;;;5032431;28;21011;-77
2021/12/11 02:17:25;;;;;;;39.03;20.07;;;3.80;99.90;;;;;;5033189;28;20934;-76
2021/12/11 02:19:54;;;;;;;33.73;20.40;;;3.90;99.90;;;;;;5032867;28;20427;-76
2021/12/11 02:22:30;;;;;;;36.17;19.20;;;3.90;99.90;;;;;;5032770;28;20597;-76
2021/12/11 02:25:00;;;;;;;36.03;17.20;;;3.90;99.90;;;;;;5032790;28;20433;-77
2021/12/11 02:27:36;;;;;;;34.23;18.97;;;3.90;99.90;;;;;;5032994;28;20430;-77
2021/12/11 02:30:18;;;;;;;34.77;19.33;;;3.90;99.90;;;;;;5032751;28;20415;-76
2021/12/11 02:33:06;;;;;;;31.37;18.57;;;4.00;99.90;;;;;;5032537;28;20474;-76
2021/12/11 02:35:45;;;;;;;32.50;21.43;;;4.00;99.90;;;;;;5033108;28;20796;-77
2021/12/11 02:38:20;;;;;;;36.83;20.53;;;4.10;99.90;;;;;;5032979;28;20478;-77
2021/12/11 02:40:51;;;;;;;35.53;19.80;;;4.10;99.90;;;;;;5032457;28;20462;-77
2021/12/11 02:43:20;;;;;;;32.63;19.07;;;4.10;99.90;;;;;;5032393;28;20999;-77
2021/12/11 02:45:59;;;;;;;35.53;19.30;;;4.10;99.90;;;;;;5032493;28;20945;-77
2021/12/11 02:48:42;;;;;;;34.07;17.70;;;4.10;99.90;;;;;;5032530;28;20435;-77
2021/12/11 02:51:28;;;;;;;36.13;19.67;;;4.10;99.90;;;;;;5032231;28;20965;-77
2021/12/11 02:54:44;;;;;;;33.57;19.30;;;4.20;99.90;;;;;;5032275;28;20955;-77
2021/12/11 02:57:33;;;;;;;32.57;20.50;;;4.20;99.90;;;;;;5032357;28;20431;-77
2021/12/11 03:00:12;;;;;;;34.83;18.67;;;4.20;99.90;;;;;;5032123;28;20421;-77
2021/12/11 03:02:43;;;;;;;28.97;17.43;;;4.20;99.90;;;;;;5032117;28;20454;-77
2021/12/11 03:05:12;;;;;;;32.43;18.77;;;4.20;99.90;;;;;;5031996;28;20447;-76
2021/12/11 03:07:44;;;;;;;35.97;19.33;;;4.20;99.90;;;;;;5031784;28;20429;-77
2021/12/11 03:10:13;;;;;;;36.17;17.53;;;4.20;99.90;;;;;;5031963;28;20454;-77
2021/12/11 03:12:40;;;;;;;33.73;19.13;;;4.20;99.90;;;;;;5031692;28;20468;-77
2021/12/11 03:15:08;;;;;;;35.17;20.27;;;4.10;99.90;;;;;;5032177;28;20522;-77
2021/12/11 03:17:34;;;;;;;28.90;17.70;;;4.10;99.90;;;;;;5032184;28;20433;-77
2021/12/11 03:20:00;;;;;;;35.40;18.70;;;4.10;99.90;;;;;;5032212;28;20938;-77
2021/12/11 03:22:30;;;;;;;28.40;17.67;;;4.10;99.90;;;;;;5031848;28;20451;-77
2021/12/11 03:25:03;;;;;;;33.43;19.50;;;4.10;99.90;;;;;;5031573;28;20419;-76
2021/12/11 03:27:29;;;;;;;35.17;18.23;;;4.10;99.90;;;;;;5031882;28;20973;-77
2021/12/11 03:29:55;;;;;;;32.87;20.20;;;4.10;99.90;;;;;;5031754;28;20514;-77
2021/12/11 03:32:21;;;;;;;32.30;17.47;;;4.10;99.90;;;;;;5031532;28;20959;-77
2021/12/11 03:34:49;;;;;;;30.43;17.20;;;4.10;99.90;;;;;;5031379;28;20510;-77
2021/12/11 03:37:19;;;;;;;29.00;17.87;;;4.10;99.90;;;;;;5031589;28;20859;-77
2021/12/11 03:39:48;;;;;;;37.03;19.83;;;4.10;99.90;;;;;;5031381;28;20428;-77
2021/12/11 03:42:30;;;;;;;34.30;20.87;;;4.00;99.90;;;;;;5031217;28;20443;-77
2021/12/11 03:44:58;;;;;;;31.00;18.03;;;3.90;99.90;;;;;;5031453;28;20471;-77
2021/12/11 03:47:28;;;;;;;37.40;19.40;;;3.90;99.90;;;;;;5031468;28;20419;-77
2021/12/11 03:49:54;;;;;;;30.97;17.97;;;3.80;99.90;;;;;;5031132;28;20512;-77
2021/12/11 03:52:20;;;;;;;36.07;18.13;;;3.80;99.90;;;;;;5031287;28;20849;-77
2021/12/11 03:54:50;;;;;;;29.87;18.47;;;3.70;99.90;;;;;;5031301;28;20415;-77
2021/12/11 03:57:19;;;;;;;33.47;18.60;;;3.60;99.90;;;;;;5031176;28;20423;-77
2021/12/11 03:59:47;;;;;;;29.93;19.40;;;3.50;99.90;;;;;;5031159;28;20516;-77
2021/12/11 04:02:17;;;;;;;28.20;15.97;;;3.40;99.90;;;;;;5030888;28;20451;-77
2021/12/11 04:04:48;;;;;;;32.13;18.27;;;3.30;99.90;;;;;;5031039;28;20454;-76
2021/12/11 04:07:21;;;;;;;29.90;17.20;;;3.20;99.90;;;;;;5031111;28;20434;-77
2021/12/11 04:09:47;;;;;;;28.53;16.10;;;3.20;99.90;;;;;;5030928;28;20428;-77
2021/12/11 04:12:14;;;;;;;26.90;16.00;;;3.10;99.90;;;;;;5030816;28;20497;-76
2021/12/11 04:14:44;;;;;;;30.93;18.77;;;3.00;99.90;;;;;;5030923;28;20418;-77
2021/12/11 04:17:13;;;;;;;32.93;18.17;;;3.00;99.90;;;;;;5030820;28;20834;-77
2021/12/11 04:19:40;;;;;;;28.77;17.10;;;3.00;99.90;;;;;;5030668;28;20476;-77
2021/12/11 04:22:07;;;;;;;33.07;17.10;;;3.00;99.90;;;;;;5030771;28;20450;-77
2021/12/11 04:24:35;;;;;;;28.80;16.30;;;2.90;99.90;;;;;;5030093;28;20758;-77
2021/12/11 04:27:04;;;;;;;26.87;17.00;;;2.90;99.90;;;;;;5030764;28;20917;-76
2021/12/11 04:29:31;;;;;;;30.33;17.80;;;2.90;99.90;;;;;;5030364;28;20787;-77
2021/12/11 04:32:00;;;;;;;28.40;16.73;;;2.80;99.90;;;;;;5030556;28;20449;-77
2021/12/11 04:34:26;;;;;;;33.57;18.20;;;2.80;99.90;;;;;;5030657;28;20555;-77
2021/12/11 04:36:59;;;;;;;32.17;19.17;;;2.70;99.90;;;;;;5030907;28;20422;-77
2021/12/11 04:39:27;;;;;;;28.03;17.40;;;2.70;99.90;;;;;;5030387;28;20995;-77
2021/12/11 04:42:04;;;;;;;30.57;17.20;;;2.60;99.90;;;;;;5030705;28;20498;-77
2021/12/11 04:44:36;;;;;;;37.90;18.60;;;2.60;99.90;;;;;;5030456;28;20433;-77
2021/12/11 04:47:32;;;;;;;32.90;17.40;;;2.60;99.90;;;;;;5030598;28;20445;-77
2021/12/11 04:50:06;;;;;;;31.33;19.30;;;2.60;99.90;;;;;;5030160;28;20434;-76
2021/12/11 04:52:34;;;;;;;36.27;20.20;;;2.60;99.90;;;;;;5030292;28;20553;-77
2021/12/11 05:00:51;;;;;;;35.83;19.47;;;2.50;99.90;;;;;;5031359;28;20415;-77
2021/12/11 05:11:09;;;;;;;39.73;20.63;;;2.40;99.90;;;;;;5031371;28;20438;-77
2021/12/11 05:13:35;;;;;;;37.17;20.27;;;2.40;99.90;;;;;;5030228;28;20474;-76
2021/12/11 05:16:05;;;;;;;32.17;19.67;;;2.30;99.90;;;;;;5030296;28;20448;-76
2021/12/11 05:18:33;;;;;;;33.80;18.17;;;2.30;99.90;;;;;;5030208;28;20432;-77
2021/12/11 05:21:04;;;;;;;37.23;18.10;;;2.20;99.90;;;;;;5029835;28;20421;-77
2021/12/11 05:23:30;;;;;;;35.33;17.67;;;2.20;99.90;;;;;;5030012;28;20445;-77
2021/12/11 05:25:56;;;;;;;38.30;19.97;;;2.20;99.90;;;;;;5030176;28;20444;-75
2021/12/11 05:28:22;;;;;;;31.60;18.57;;;2.10;99.90;;;;;;5030042;28;20430;-77
2021/12/11 05:30:52;;;;;;;39.80;19.37;;;2.10;99.90;;;;;;5029933;28;20771;-77
2021/12/11 05:33:21;;;;;;;35.17;19.70;;;2.10;99.90;;;;;;5029703;28;20215;-77
2021/12/11 05:35:47;;;;;;;31.70;18.57;;;2.10;99.90;;;;;;5031398;28;20418;-77
2021/12/11 05:38:15;;;;;;;28.87;17.50;;;2.20;99.90;;;;;;5033559;28;20429;-76
2021/12/11 05:40:45;;;;;;;33.63;18.60;;;2.20;99.90;;;;;;5033482;28;20942;-76
2021/12/11 05:43:11;;;;;;;39.50;19.47;;;2.30;99.90;;;;;;5033576;28;20799;-77
2021/12/11 05:45:39;;;;;;;33.53;19.40;;;2.30;99.90;;;;;;5033489;28;20454;-77
2021/12/11 05:48:05;;;;;;;37.10;18.90;;;2.20;99.90;;;;;;5033434;28;20979;-77
2021/12/11 05:50:47;;;;;;;34.03;18.90;;;2.20;99.90;;;;;;5033440;28;20426;-77
2021/12/11 05:53:13;;;;;;;38.97;18.90;;;2.20;99.90;;;;;;5033385;28;20556;-77
2021/12/11 05:55:40;;;;;;;32.43;17.70;;;2.30;99.90;;;;;;5033367;28;20800;-77
2021/12/11 05:58:11;;;;;;;36.37;19.40;;;2.30;99.90;;;;;;5033446;28;20430;-77
2021/12/11 06:00:46;;;;;;;34.00;18.13;;;2.30;99.90;;;;;;5033145;28;20449;-77
2021/12/11 06:03:13;;;;;;;33.73;18.70;;;2.40;99.90;;;;;;5033257;28;20846;-77
2021/12/11 06:05:39;;;;;;;35.10;19.30;;;2.50;99.90;;;;;;5033311;28;20525;-76
2021/12/11 06:08:06;;;;;;;39.83;21.17;;;2.60;99.90;;;;;;5033326;28;20809;-77
2021/12/11 06:10:33;;;;;;;36.60;21.20;;;2.70;99.90;;;;;;5033084;28;20415;-76
2021/12/11 06:13:00;;;;;;;33.73;17.87;;;2.80;99.90;;;;;;5033004;28;20465;-77
2021/12/11 06:15:26;;;;;;;33.80;18.53;;;2.90;99.90;;;;;;5033059;28;20466;-76
2021/12/11 06:17:52;;;;;;;37.07;19.57;;;2.90;99.90;;;;;;5032940;28;20922;-76
2021/12/11 06:20:23;;;;;;;34.20;18.37;;;3.00;99.90;;;;;;5032985;28;20432;-77
2021/12/11 06:22:49;;;;;;;35.07;19.03;;;3.10;99.90;;;;;;5033295;28;20210;-76
2021/12/11 06:25:23;;;;;;;35.40;20.07;;;3.10;99.90;;;;;;5033074;28;20426;-77
2021/12/11 06:27:48;;;;;;;43.30;20.70;;;3.20;99.90;;;;;;5032827;28;20865;-77
2021/12/11 06:30:17;;;;;;;38.13;19.70;;;3.30;99.90;;;;;;5032725;28;20472;-77
2021/12/11 06:32:44;;;;;;;37.00;20.00;;;3.40;99.90;;;;;;5032568;28;20500;-77
2021/12/11 06:35:19;;;;;;;38.60;20.73;;;3.40;99.90;;;;;;5032842;28;20914;-77
2021/12/11 06:37:45;;;;;;;34.30;18.03;;;3.50;99.90;;;;;;5032684;28;20430;-77
2021/12/11 06:40:12;;;;;;;38.70;20.20;;;3.50;99.90;;;;;;5032731;28;20426;-76
2021/12/11 06:42:38;;;;;;;38.30;20.40;;;3.60;99.90;;;;;;5032517;28;20200;-77
2021/12/11 06:47:32;;;;;;;40.47;18.07;;;3.70;99.90;;;;;;5054093;22;21043;-83
2021/12/11 06:49:57;;;;;;;39.90;19.37;;;3.80;99.90;;;;;;5032674;28;20416;-82
2021/12/11 06:52:25;;;;;;;38.80;19.73;;;3.80;99.90;;;;;;5032641;28;20422;-83
2021/12/11 06:54:52;;;;;;;42.37;19.17;;;3.90;99.90;;;;;;5033081;28;20188;-84
2021/12/11 06:57:18;;;;;;;43.20;20.97;;;3.90;99.90;;;;;;5037568;28;20439;-83
2021/12/11 06:59:44;;;;;;;38.13;19.63;;;4.00;99.90;;;;;;5038608;28;20434;-83
2021/12/11 07:02:10;;;;;;;41.70;19.77;;;4.00;99.90;;;;;;5038121;28;20420;-83
2021/12/11 07:04:36;;;;;;;44.43;21.70;;;4.00;99.90;;;;;;5038296;28;20415;-83
2021/12/11 07:07:03;;;;;;;42.67;21.63;;;4.10;99.90;;;;;;5038080;28;20435;-83
2021/12/11 07:09:29;;;;;;;38.53;21.33;;;4.10;99.90;;;;;;5037759;28;20417;-83
2021/12/11 07:11:57;;;;;;;41.43;20.90;;;4.10;99.90;;;;;;5038291;28;20422;-83
2021/12/11 07:14:25;;;;;;;36.13;21.83;;;4.10;99.90;;;;;;5036687;28;20961;-83
2021/12/11 07:16:52;;;;;;;39.07;20.40;;;4.20;99.90;;;;;;5036169;28;20477;-83
2021/12/11 07:19:18;;;;;;;40.23;22.70;;;4.20;99.90;;;;;;5036138;28;20938;-83
2021/12/11 07:21:49;;;;;;;36.57;21.57;;;4.20;99.90;;;;;;5036442;28;20519;-83
2021/12/11 07:24:15;;;;;;;36.80;20.13;;;4.20;99.90;;;;;;5026065;28;21025;-84
2021/12/11 07:26:41;;;;;;;38.53;21.43;;;4.20;99.90;;;;;;5034455;28;20438;-84
2021/12/11 07:29:13;;;;;;;35.53;20.10;;;4.20;99.90;;;;;;5034942;28;20415;-83
2021/12/11 07:31:40;;;;;;;39.37;21.03;;;4.30;99.90;;;;;;5034481;28;20903;-84
2021/12/11 07:34:06;;;;;;;42.00;21.60;;;4.30;99.90;;;;;;5031330;28;20974;-84
2021/12/11 07:36:32;;;;;;;40.60;21.70;;;4.40;99.90;;;;;;5014620;28;20440;-84
2021/12/11 07:39:02;;;;;;;46.53;22.57;;;4.40;99.90;;;;;;5014766;28;20417;-84
2021/12/11 07:41:28;;;;;;;42.37;23.27;;;4.40;99.90;;;;;;5014236;28;20419;-83
2021/12/11 07:43:53;;;;;;;39.10;22.47;;;4.50;99.90;;;;;;5015596;28;20416;-84
2021/12/11 07:46:24;;;;;;;44.07;26.53;;;4.50;99.90;;;;;;5013603;28;20218;-84
2021/12/11 07:48:50;;;;;;;44.87;22.43;;;4.50;99.90;;;;;;5015649;28;20274;-84
2021/12/11 07:51:17;;;;;;;38.27;22.23;;;4.50;99.90;;;;;;5013882;28;20425;-83
2021/12/11 07:53:43;;;;;;;42.60;22.00;;;4.50;99.90;;;;;;5013749;28;20466;-84
2021/12/11 07:56:10;;;;;;;44.47;23.93;;;4.60;99.90;;;;;;5013682;28;20453;-85
2021/12/11 07:58:35;;;;;;;39.00;20.60;;;4.60;99.90;;;;;;5014708;28;20783;-84
2021/12/11 08:01:04;;;;;;;42.07;20.47;;;4.70;99.90;;;;;;5012787;28;20426;-84
2021/12/11 08:03:31;;;;;;;47.10;21.73;;;4.70;99.90;;;;;;5013962;28;20194;-84
2021/12/11 08:05:57;;;;;;;35.60;20.40;;;4.80;99.90;;;;;;5013689;28;20449;-84
2021/12/11 08:08:23;;;;;;;39.40;20.77;;;4.80;99.90;;;;;;5014758;28;20921;-84
2021/12/11 08:10:52;;;;;;;40.27;20.27;;;4.80;99.90;;;;;;5013008;28;20184;-85
2021/12/11 08:13:17;;;;;;;43.53;22.23;;;4.80;99.90;;;;;;5014388;28;20449;-85
2021/12/11 08:15:44;;;;;;;35.60;19.23;;;4.80;99.90;;;;;;5012986;28;20449;-84
2021/12/11 08:18:11;;;;;;;40.00;20.27;;;4.80;99.90;;;;;;5014808;28;20266;-84
2021/12/11 08:20:39;;;;;;;40.20;18.10;;;4.70;99.90;;;;;;5013073;28;20485;-84
2021/12/11 08:23:06;;;;;;;41.73;21.20;;;4.70;99.90;;;;;;5012883;28;20425;-84
2021/12/11 08:25:34;;;;;;;33.60;18.20;;;4.80;99.90;;;;;;5013055;28;20533;-84
2021/12/11 08:28:01;;;;;;;44.87;19.27;;;4.80;99.90;;;;;;5012525;28;20421;-84
2021/12/11 08:30:29;;;;;;;40.07;19.47;;;4.80;99.90;;;;;;5014101;28;20852;-84
2021/12/11 08:32:55;;;;;;;37.87;20.50;;;4.80;99.90;;;;;;5034091;28;20538;-84
2021/12/11 08:35:22;;;;;;;43.03;19.43;;;4.90;99.90;;;;;;5032411;28;20437;-84
2021/12/11 08:37:50;;;;;;;44.70;22.20;;;4.90;99.90;;;;;;5032738;28;20418;-84
2021/12/11 08:40:21;;;;;;;44.90;23.07;;;4.90;99.90;;;;;;5032299;28;20412;-84
2021/12/11 08:42:47;;;;;;;42.00;19.60;;;4.80;99.90;;;;;;5032677;28;20940;-84
2021/12/11 08:45:21;;;;;;;45.90;22.10;;;4.90;99.90;;;;;;5032148;28;20413;-84
2021/12/11 08:47:49;;;;;;;42.07;21.23;;;4.90;99.90;;;;;;5032040;28;20436;-84
2021/12/11 08:50:18;;;;;;;39.90;20.50;;;4.90;99.90;;;;;;5032037;28;20777;-84
2021/12/11 08:52:44;;;;;;;48.20;22.87;;;4.90;99.90;;;;;;5031773;28;20458;-84
2021/12/11 08:55:14;;;;;;;36.80;20.33;;;5.00;99.90;;;;;;5033394;28;20412;-85
2021/12/11 08:57:41;;;;;;;43.47;21.57;;;4.90;99.90;;;;;;5031469;28;20413;-84
2021/12/11 09:00:23;;;;;;;49.78;24.48;;;4.90;99.90;;;;;;5031946;28;20429;-84
2021/12/11 09:02:56;;;;;;;44.70;22.57;;;4.80;99.90;;;;;;5031023;28;20262;-84
2021/12/11 09:05:29;;;;;;;43.00;22.00;;;4.90;99.90;;;;;;5031142;28;20436;-84
2021/12/11 09:08:12;;;;;;;43.27;21.60;;;4.90;99.90;;;;;;5031047;28;20854;-84
2021/12/11 09:10:39;;;;;;;40.17;20.47;;;4.90;99.90;;;;;;5012551;28;20430;-84
2021/12/11 09:13:26;;;;;;;53.43;22.87;;;4.90;99.90;;;;;;5026544;28;20506;-84
2021/12/11 09:16:17;;;;;;;38.63;20.93;;;4.90;99.90;;;;;;5036275;28;20952;-84
2021/12/11 09:19:13;;;;;;;40.17;20.30;;;4.90;99.90;;;;;;5035986;28;20896;-84
2021/12/11 09:22:07;;;;;;;35.97;19.10;;;4.80;99.90;;;;;;5036163;28;20425;-84
2021/12/11 09:24:51;;;;;;;42.77;18.97;;;4.80;99.90;;;;;;5034917;28;20452;-84
2021/12/11 09:27:31;;;;;;;40.80;22.90;;;4.80;99.90;;;;;;5034670;28;20457;-84
2021/12/11 09:30:13;;;;;;;49.27;21.63;;;4.80;99.90;;;;;;5034885;28;20426;-84
2021/12/11 09:33:01;;;;;;;46.93;21.63;;;4.80;99.90;;;;;;5034332;28;20456;-84
2021/12/11 09:35:26;;;;;;;42.77;19.73;;;4.80;99.90;;;;;;5034984;28;20823;-84
2021/12/11 09:37:57;;;;;;;52.33;21.93;;;4.90;99.90;;;;;;5035685;28;20421;-84
2021/12/11 09:40:31;;;;;;;41.40;22.03;;;5.00;99.90;;;;;;5034570;28;20231;-84
2021/12/11 09:42:57;;;;;;;45.37;21.03;;;5.00;99.90;;;;;;5035464;28;20415;-84
2021/12/11 09:45:26;;;;;;;41.03;20.80;;;5.10;99.90;;;;;;5034141;28;20808;-84
2021/12/11 09:48:05;;;;;;;49.53;22.80;;;5.10;99.90;;;;;;5034401;28;20182;-84
2021/12/11 09:50:43;;;;;;;49.30;22.67;;;5.10;99.90;;;;;;5034838;28;20438;-84
2021/12/11 09:53:10;;;;;;;44.17;20.80;;;5.20;99.90;;;;;;5034286;28;20460;-84
2021/12/11 09:55:39;;;;;;;43.97;20.53;;;5.20;99.90;;;;;;5034201;28;20429;-84
2021/12/11 09:58:11;;;;;;;45.30;20.00;;;5.20;99.90;;;;;;5035754;28;20417;-84
2021/12/11 10:00:37;;;;;;;50.80;20.70;;;5.10;99.90;;;;;;5035531;28;20471;-84
2021/12/11 10:03:05;;;;;;;54.40;22.53;;;5.20;99.90;;;;;;5033495;28;20430;-84
2021/12/11 10:05:42;;;;;;;37.23;18.37;;;5.20;99.90;;;;;;5034971;28;20685;-85
2021/12/11 10:08:35;;;;;;;43.07;20.93;;;5.20;99.90;;;;;;5035466;28;20409;-84
2021/12/11 10:11:16;;;;;;;42.93;21.27;;;5.20;99.90;;;;;;5033053;28;20432;-82
2021/12/11 10:13:43;;;;;;;42.67;21.00;;;5.30;99.90;;;;;;5033473;28;20456;-83
2021/12/11 10:16:10;;;;;;;38.77;18.87;;;5.20;99.90;;;;;;5033562;28;20476;-84
2021/12/11 10:18:35;;;;;;;36.97;20.53;;;5.30;99.90;;;;;;5033256;28;20439;-83
2021/12/11 10:21:22;;;;;;;37.97;18.63;;;5.30;99.90;;;;;;5032997;28;20429;-84
2021/12/11 10:23:52;;;;;;;46.30;19.47;;;5.20;99.90;;;;;;5034418;28;20159;-83
2021/12/11 10:26:19;;;;;;;38.20;18.60;;;5.20;99.90;;;;;;5033292;28;20445;-84
2021/12/11 10:28:48;;;;;;;33.53;19.13;;;5.20;99.90;;;;;;5033768;28;20426;-82
2021/12/11 10:31:23;;;;;;;36.47;17.67;;;5.30;99.90;;;;;;5033999;28;20786;-82
2021/12/11 10:33:50;;;;;;;34.00;17.33;;;5.30;99.90;;;;;;5034821;28;20491;-82
2021/12/11 10:36:20;;;;;;;35.30;17.57;;;5.30;99.90;;;;;;5029184;28;20434;-81
2021/12/11 10:38:47;;;;;;;39.53;17.47;;;5.30;99.90;;;;;;5033643;28;20417;-83
2021/12/11 10:41:15;;;;;;;36.60;17.23;;;5.30;99.90;;;;;;5033633;28;20466;-83
2021/12/11 10:43:52;;;;;;;33.80;17.10;;;5.30;99.90;;;;;;5034835;28;20420;-84
2021/12/11 10:46:20;;;;;;;38.57;17.87;;;5.40;99.90;;;;;;5034481;28;20475;-84
2021/12/11 10:48:46;;;;;;;34.90;17.00;;;5.40;99.90;;;;;;5034634;28;20425;-84
2021/12/11 10:51:15;;;;;;;34.23;17.80;;;5.50;99.90;;;;;;5034634;28;20422;-84
2021/12/11 10:53:46;;;;;;;35.37;17.83;;;5.60;99.90;;;;;;5034179;28;20203;-82
2021/12/11 10:56:16;;;;;;;39.70;18.10;;;5.50;99.90;;;;;;5034364;28;20433;-83
2021/12/11 10:58:49;;;;;;;34.77;16.77;;;5.60;99.90;;;;;;5034345;28;20433;-83
2021/12/11 11:01:27;;;;;;;33.37;18.67;;;5.60;99.90;;;;;;5032600;28;20409;-82
2021/12/11 11:03:57;;;;;;;39.17;16.33;;;5.70;99.90;;;;;;5032933;28;20433;-83
2021/12/11 11:06:24;;;;;;;30.93;15.77;;;5.60;99.90;;;;;;5034011;28;20443;-82
2021/12/11 11:08:50;;;;;;;30.10;15.47;;;5.80;99.90;;;;;;5034144;28;20423;-82
2021/12/11 11:11:20;;;;;;;29.80;15.67;;;5.80;99.90;;;;;;5027912;28;20425;-82
2021/12/11 11:13:46;;;;;;;38.60;16.70;;;5.90;99.90;;;;;;5028031;28;20980;-82
2021/12/11 11:16:15;;;;;;;28.70;15.30;;;6.00;99.90;;;;;;5019391;28;20508;-82
2021/12/11 11:18:41;;;;;;;33.77;15.80;;;6.00;99.90;;;;;;5026239;28;20794;-82
2021/12/11 11:21:11;;;;;;;24.90;13.17;;;6.00;99.90;;;;;;5032197;28;20430;-84
2021/12/11 11:23:38;;;;;;;22.47;13.43;;;6.10;99.90;;;;;;5032030;28;20203;-83
2021/12/11 11:26:08;;;;;;;26.00;11.87;;;6.10;99.90;;;;;;5033087;28;20993;-84
2021/12/11 11:28:36;;;;;;;19.60;10.70;;;6.20;99.90;;;;;;5032745;28;20480;-85
2021/12/11 11:31:08;;;;;;;22.50;13.30;;;6.30;99.90;;;;;;5032020;28;20472;-85
2021/12/11 11:33:35;;;;;;;21.23;11.43;;;6.40;99.90;;;;;;5033376;28;20462;-84
2021/12/11 11:36:04;;;;;;;15.83;10.40;;;6.50;99.90;;;;;;5033264;28;20870;-84
2021/12/11 11:38:36;;;;;;;18.50;10.27;;;6.50;99.90;;;;;;5032216;28;20863;-84
2021/12/11 11:41:08;;;;;;;18.10;9.87;;;6.60;99.90;;;;;;5032482;28;20442;-83
2021/12/11 11:43:34;;;;;;;16.83;10.10;;;6.60;99.90;;;;;;5033642;28;20503;-83
2021/12/11 11:46:00;;;;;;;21.07;10.47;;;6.50;99.90;;;;;;5031812;28;20568;-83
2021/12/11 11:48:35;;;;;;;19.87;10.23;;;6.70;99.90;;;;;;5033742;28;20443;-84
2021/12/11 11:51:05;;;;;;;15.27;10.20;;;6.70;99.90;;;;;;5032972;28;20160;-84
2021/12/11 11:53:31;;;;;;;15.77;9.40;;;6.70;99.90;;;;;;5032378;28;20454;-84
2021/12/11 11:56:01;;;;;;;20.60;9.53;;;6.70;99.90;;;;;;5032150;28;20833;-83
2021/12/11 11:58:29;;;;;;;12.03;9.40;;;6.80;99.90;;;;;;5032176;28;20234;-83
2021/12/11 12:01:01;;;;;;;12.70;8.37;;;6.80;99.90;;;;;;5031771;28;20550;-83
2021/12/11 12:03:29;;;;;;;11.73;7.70;;;6.80;99.90;;;;;;5032513;28;21037;-83
2021/12/11 12:05:59;;;;;;;14.87;7.53;;;6.80;99.90;;;;;;5033142;28;20462;-83
2021/12/11 12:08:26;;;;;;;13.80;6.70;;;6.90;99.90;;;;;;5031937;28;20937;-84
2021/12/11 12:10:53;;;;;;;15.53;7.80;;;6.90;99.90;;;;;;5031581;28;20435;-83
2021/12/11 12:13:24;;;;;;;9.13;7.80;;;7.00;99.90;;;;;;5025516;28;20463;-84
2021/12/11 12:15:55;;;;;;;9.83;7.33;;;6.90;99.90;;;;;;5031066;28;20447;-83
2021/12/11 12:18:27;;;;;;;17.13;8.23;;;7.00;99.90;;;;;;5032328;28;20401;-83
2021/12/11 12:20:54;;;;;;;12.43;7.10;;;7.00;99.90;;;;;;5027469;28;20420;-83
2021/12/11 12:23:22;;;;;;;9.43;7.40;;;7.10;99.90;;;;;;5022831;28;20810;-83
2021/12/11 12:25:50;;;;;;;9.00;7.10;;;7.10;99.90;;;;;;5030013;28;20534;-83
2021/12/11 12:28:16;;;;;;;8.63;6.73;;;7.00;99.90;;;;;;5029166;28;20849;-84
2021/12/11 12:30:55;;;;;;;10.00;7.27;;;7.00;99.90;;;;;;5030250;28;20424;-83
2021/12/11 12:33:21;;;;;;;12.80;8.77;;;7.00;99.90;;;;;;5031921;28;20466;-83
2021/12/11 12:35:48;;;;;;;9.57;6.77;;;7.10;99.90;;;;;;5031658;28;20439;-83
2021/12/11 12:38:19;;;;;;;9.50;6.33;;;7.00;99.90;;;;;;5030669;28;20552;-83
2021/12/11 12:41:00;;;;;;;11.13;7.43;;;7.00;99.90;;;;;;5031580;28;20815;-84
2021/12/11 12:46:12;;;;;;;11.63;7.00;;;6.80;99.90;;;;;;5022646;28;20915;-82
2021/12/11 12:48:37;;;;;;;18.73;7.00;;;7.00;99.90;;;;;;5012019;28;20416;-84
2021/12/11 12:51:07;;;;;;;11.03;6.90;;;7.00;99.90;;;;;;5011785;28;20499;-84
2021/12/11 12:53:34;;;;;;;10.57;6.93;;;7.00;99.90;;;;;;5027220;28;20200;-86
2021/12/11 12:56:16;;;;;;;8.17;6.30;;;7.00;99.90;;;;;;5027116;28;20448;-84
2021/12/11 12:58:52;;;;;;;9.60;6.93;;;6.90;99.90;;;;;;5029353;28;20428;-85
2021/12/11 13:01:29;;;;;;;8.50;6.53;;;6.90;99.90;;;;;;5022236;28;20424;-82
2021/12/11 13:03:56;;;;;;;12.13;7.83;;;7.00;99.90;;;;;;5030698;28;20438;-84
2021/12/11 13:06:28;;;;;;;12.17;6.80;;;7.00;99.90;;;;;;5032306;28;20534;-84
2021/12/11 13:08:59;;;;;;;8.90;6.67;;;7.00;99.90;;;;;;5032331;28;20414;-84
2021/12/11 13:11:49;;;;;;;11.40;7.17;;;7.00;99.90;;;;;;5029680;28;20411;-84
2021/12/11 13:14:15;;;;;;;15.83;7.30;;;7.10;99.90;;;;;;5030867;28;20487;-84
2021/12/11 13:16:44;;;;;;;12.37;6.93;;;7.10;99.90;;;;;;5038427;22;20510;-79